sensor_id;sensor_type;location;lat;lon;timestamp;pressure;altitude;pressure_sealevel;temperature;humidity
49311;BME280;35177;45.900;5.946;2023-10-13T00:01:53;98079.50;;;9.91;95.00
49311;BME280;35177;45.900;5.946;2023-10-13T00:04:20;98073.78;;;9.83;93.31
49311;BME280;35177;45.900;5.946;2023-10-13T00:06:51;98076.69;;;9.78;94.33
49311;BME280;35177;45.900;5.946;2023-10-13T00:09:16;98081.44;;;9.72;92.28
49311;BME280;35177;45.900;5.946;2023-10-13T00:11:42;98081.44;;;9.72;92.51
49311;BME280;35177;45.900;5.946;2023-10-13T00:14:12;98074.28;;;9.74;90.84
49311;BME280;35177;45.900;5.946;2023-10-13T00:16:43;98072.50;;;9.90;90.68
49311;BME280;35177;45.900;5.946;2023-10-13T00:19:27;98076.88;;;9.91;91.25
49311;BME280;35177;45.900;5.946;2023-10-13T00:21:53;98083.16;;;9.89;90.50
49311;BME280;35177;45.900;5.946;2023-10-13T00:24:21;98083.91;;;10.06;90.78
49311;BME280;35177;45.900;5.946;2023-10-13T00:26:48;98079.34;;;9.94;91.44
49311;BME280;35177;45.900;5.946;2023-10-13T00:29:14;98073.19;;;10.09;91.43
49311;BME280;35177;45.900;5.946;2023-10-13T00:31:43;98079.81;;;9.85;91.19
49311;BME280;35177;45.900;5.946;2023-10-13T00:34:12;98078.41;;;9.64;90.51
49311;BME280;35177;45.900;5.946;2023-10-13T00:36:44;98069.66;;;9.62;93.39
49311;BME280;35177;45.900;5.946;2023-10-13T00:39:28;98081.50;;;9.55;96.21
49311;BME280;35177;45.900;5.946;2023-10-13T00:41:54;98079.16;;;9.66;96.49
49311;BME280;35177;45.900;5.946;2023-10-13T00:44:24;98084.44;;;9.66;95.93
49311;BME280;35177;45.900;5.946;2023-10-13T00:47:19;98085.63;;;9.76;93.14
49311;BME280;35177;45.900;5.946;2023-10-13T00:50:08;98077.50;;;9.48;92.03
49311;BME280;35177;45.900;5.946;2023-10-13T00:52:37;98079.31;;;9.47;91.74
49311;BME280;35177;45.900;5.946;2023-10-13T00:55:07;98072.19;;;9.48;92.14
49311;BME280;35177;45.900;5.946;2023-10-13T00:57:34;98075.34;;;9.39;91.06
49311;BME280;35177;45.900;5.946;2023-10-13T01:00:00;98073.97;;;9.32;90.78
49311;BME280;35177;45.900;5.946;2023-10-13T01:02:46;98073.50;;;9.41;92.26
49311;BME280;35177;45.900;5.946;2023-10-13T01:05:21;98076.22;;;9.55;91.75
49311;BME280;35177;45.900;5.946;2023-10-13T01:07:47;98072.44;;;9.43;92.31
49311;BME280;35177;45.900;5.946;2023-10-13T01:10:20;98072.81;;;9.53;94.61
49311;BME280;35177;45.900;5.946;2023-10-13T01:12:50;98071.78;;;9.55;94.28
49311;BME280;35177;45.900;5.946;2023-10-13T01:15:18;98059.00;;;9.48;91.54
49311;BME280;35177;45.900;5.946;2023-10-13T01:17:46;98062.47;;;9.33;92.26
49311;BME280;35177;45.900;5.946;2023-10-13T01:20:15;98056.28;;;9.34;92.75
49311;BME280;35177;45.900;5.946;2023-10-13T01:22:46;98050.13;;;9.33;93.89
49311;BME280;35177;45.900;5.946;2023-10-13T01:25:25;98054.56;;;9.48;92.95
49311;BME280;35177;45.900;5.946;2023-10-13T01:27:54;98049.78;;;9.24;91.38
49311;BME280;35177;45.900;5.946;2023-10-13T01:30:20;98054.97;;;9.25;92.87
49311;BME280;35177;45.900;5.946;2023-10-13T01:32:50;98044.16;;;9.30;92.28
49311;BME280;35177;45.900;5.946;2023-10-13T01:35:17;98043.31;;;9.29;93.93
49311;BME280;35177;45.900;5.946;2023-10-13T01:37:45;98039.69;;;9.47;93.79
49311;BME280;35177;45.900;5.946;2023-10-13T01:40:11;98043.50;;;9.57;94.72
49311;BME280;35177;45.900;5.946;2023-10-13T01:42:39;98033.44;;;9.48;92.34
49311;BME280;35177;45.900;5.946;2023-10-13T01:45:04;98031.59;;;9.18;92.86
49311;BME280;35177;45.900;5.946;2023-10-13T01:47:31;98031.13;;;9.27;93.12
49311;BME280;35177;45.900;5.946;2023-10-13T01:49:58;98031.97;;;9.27;92.61
49311;BME280;35177;45.900;5.946;2023-10-13T01:52:32;98028.66;;;9.39;91.55
49311;BME280;35177;45.900;5.946;2023-10-13T01:54:57;98026.13;;;9.38;93.78
49311;BME280;35177;45.900;5.946;2023-10-13T01:57:26;98029.06;;;9.32;93.15
49311;BME280;35177;45.900;5.946;2023-10-13T01:59:53;98026.94;;;9.23;92.69
49311;BME280;35177;45.900;5.946;2023-10-13T02:02:20;98023.03;;;9.30;96.06
49311;BME280;35177;45.900;5.946;2023-10-13T02:04:55;98025.44;;;9.01;92.29
49311;BME280;35177;45.900;5.946;2023-10-13T02:07:22;98022.84;;;8.84;92.49
49311;BME280;35177;45.900;5.946;2023-10-13T02:09:55;98022.22;;;8.79;92.14
49311;BME280;35177;45.900;5.946;2023-10-13T02:12:21;98023.81;;;8.66;94.59
49311;BME280;35177;45.900;5.946;2023-10-13T02:14:54;98021.00;;;8.69;92.58
49311;BME280;35177;45.900;5.946;2023-10-13T02:17:19;98021.78;;;8.54;94.14
49311;BME280;35177;45.900;5.946;2023-10-13T02:19:51;98020.41;;;8.47;94.38
49311;BME280;35177;45.900;5.946;2023-10-13T02:22:19;98020.56;;;8.44;96.49
49311;BME280;35177;45.900;5.946;2023-10-13T02:24:54;98019.22;;;8.70;93.69
49311;BME280;35177;45.900;5.946;2023-10-13T02:27:26;98023.28;;;8.92;92.23
49311;BME280;35177;45.900;5.946;2023-10-13T02:29:52;98025.81;;;8.61;90.97
49311;BME280;35177;45.900;5.946;2023-10-13T02:32:24;98018.91;;;8.59;93.53
49311;BME280;35177;45.900;5.946;2023-10-13T02:34:49;98016.66;;;8.51;94.72
49311;BME280;35177;45.900;5.946;2023-10-13T02:37:15;98015.66;;;8.54;94.50
49311;BME280;35177;45.900;5.946;2023-10-13T02:39:44;98012.16;;;8.70;97.63
49311;BME280;35177;45.900;5.946;2023-10-13T02:42:10;98009.06;;;8.62;96.10
49311;BME280;35177;45.900;5.946;2023-10-13T02:44:48;98010.16;;;8.58;96.16
49311;BME280;35177;45.900;5.946;2023-10-13T02:47:14;98010.75;;;8.80;96.06
49311;BME280;35177;45.900;5.946;2023-10-13T02:49:40;98013.06;;;8.69;94.58
49311;BME280;35177;45.900;5.946;2023-10-13T02:52:09;98016.19;;;8.60;95.40
49311;BME280;35177;45.900;5.946;2023-10-13T02:54:36;98001.38;;;8.58;97.46
49311;BME280;35177;45.900;5.946;2023-10-13T02:57:15;98010.63;;;8.66;98.09
49311;BME280;35177;45.900;5.946;2023-10-13T02:59:41;98011.09;;;8.40;95.96
49311;BME280;35177;45.900;5.946;2023-10-13T03:02:16;98003.03;;;8.43;95.55
49311;BME280;35177;45.900;5.946;2023-10-13T03:07:16;98002.81;;;8.48;95.61
49311;BME280;35177;45.900;5.946;2023-10-13T03:09:48;97987.22;;;8.43;95.26
49311;BME280;35177;45.900;5.946;2023-10-13T03:12:18;97995.41;;;8.37;93.59
49311;BME280;35177;45.900;5.946;2023-10-13T03:14:44;97998.53;;;8.28;93.50
49311;BME280;35177;45.900;5.946;2023-10-13T03:17:20;97989.00;;;8.43;95.47
49311;BME280;35177;45.900;5.946;2023-10-13T03:19:58;97991.88;;;8.38;95.39
49311;BME280;35177;45.900;5.946;2023-10-13T03:22:25;97986.97;;;8.48;93.80
49311;BME280;35177;45.900;5.946;2023-10-13T03:24:58;97987.81;;;8.48;93.04
49311;BME280;35177;45.900;5.946;2023-10-13T03:27:34;97981.28;;;8.55;93.61
49311;BME280;35177;45.900;5.946;2023-10-13T03:30:26;97987.94;;;8.62;94.73
49311;BME280;35177;45.900;5.946;2023-10-13T03:33:07;97989.84;;;8.43;96.00
49311;BME280;35177;45.900;5.946;2023-10-13T03:35:37;97990.78;;;8.42;97.12
49311;BME280;35177;45.900;5.946;2023-10-13T03:38:05;97993.88;;;8.33;93.68
49311;BME280;35177;45.900;5.946;2023-10-13T03:40:57;97995.88;;;8.28;92.48
49311;BME280;35177;45.900;5.946;2023-10-13T03:43:45;97986.28;;;8.27;92.93
49311;BME280;35177;45.900;5.946;2023-10-13T03:46:10;97987.41;;;8.21;94.01
49311;BME280;35177;45.900;5.946;2023-10-13T03:48:36;97986.84;;;8.33;93.82
49311;BME280;35177;45.900;5.946;2023-10-13T03:51:17;97984.44;;;8.29;94.69
49311;BME280;35177;45.900;5.946;2023-10-13T03:53:42;97984.88;;;8.20;94.65
49311;BME280;35177;45.900;5.946;2023-10-13T03:56:24;97973.59;;;8.16;96.58
49311;BME280;35177;45.900;5.946;2023-10-13T03:59:06;97981.91;;;7.92;95.61
49311;BME280;35177;45.900;5.946;2023-10-13T04:01:37;97980.25;;;8.06;94.76
49311;BME280;35177;45.900;5.946;2023-10-13T04:04:10;97976.53;;;7.93;94.94
49311;BME280;35177;45.900;5.946;2023-10-13T04:06:37;97972.19;;;7.92;94.53
49311;BME280;35177;45.900;5.946;2023-10-13T04:11:59;97977.66;;;7.70;94.86
49311;BME280;35177;45.900;5.946;2023-10-13T04:14:44;97976.44;;;7.78;93.01
49311;BME280;35177;45.900;5.946;2023-10-13T04:17:28;97979.41;;;7.89;92.65
49311;BME280;35177;45.900;5.946;2023-10-13T04:19:57;97971.25;;;7.93;92.31
49311;BME280;35177;45.900;5.946;2023-10-13T04:22:48;97977.84;;;7.85;94.74
49311;BME280;35177;45.900;5.946;2023-10-13T04:25:35;97972.28;;;7.91;94.66
49311;BME280;35177;45.900;5.946;2023-10-13T04:28:17;97975.41;;;7.99;93.86
49311;BME280;35177;45.900;5.946;2023-10-13T04:31:03;97963.38;;;7.93;93.38
49311;BME280;35177;45.900;5.946;2023-10-13T04:33:39;97968.88;;;8.06;94.89
49311;BME280;35177;45.900;5.946;2023-10-13T04:36:18;97966.38;;;7.86;95.12
49311;BME280;35177;45.900;5.946;2023-10-13T04:38:47;97963.03;;;7.82;96.68
49311;BME280;35177;45.900;5.946;2023-10-13T04:41:27;97964.38;;;7.74;95.90
49311;BME280;35177;45.900;5.946;2023-10-13T04:44:10;97964.03;;;7.80;94.04
49311;BME280;35177;45.900;5.946;2023-10-13T04:46:55;97962.19;;;7.82;94.35
49311;BME280;35177;45.900;5.946;2023-10-13T04:49:35;97958.81;;;7.61;93.87
49311;BME280;35177;45.900;5.946;2023-10-13T04:52:15;97960.41;;;7.46;94.37
49311;BME280;35177;45.900;5.946;2023-10-13T04:55:01;97960.13;;;7.52;95.28
49311;BME280;35177;45.900;5.946;2023-10-13T04:57:45;97967.94;;;7.54;94.10
49311;BME280;35177;45.900;5.946;2023-10-13T05:00:11;97964.84;;;7.27;94.35
49311;BME280;35177;45.900;5.946;2023-10-13T05:05:13;97961.78;;;7.36;94.83
49311;BME280;35177;45.900;5.946;2023-10-13T05:07:39;97956.41;;;7.56;94.22
49311;BME280;35177;45.900;5.946;2023-10-13T05:10:23;97958.50;;;7.50;92.67
49311;BME280;35177;45.900;5.946;2023-10-13T05:13:07;97955.81;;;7.14;93.47
49311;BME280;35177;45.900;5.946;2023-10-13T05:15:51;97955.03;;;7.31;92.71
49311;BME280;35177;45.900;5.946;2023-10-13T05:18:36;97954.47;;;7.24;92.73
49311;BME280;35177;45.900;5.946;2023-10-13T05:21:20;97956.09;;;7.45;93.14
49311;BME280;35177;45.900;5.946;2023-10-13T05:24:05;97955.44;;;7.40;96.47
49311;BME280;35177;45.900;5.946;2023-10-13T05:26:49;97952.81;;;7.40;93.61
49311;BME280;35177;45.900;5.946;2023-10-13T05:29:33;97959.16;;;7.36;94.57
49311;BME280;35177;45.900;5.946;2023-10-13T05:32:17;97963.25;;;7.42;97.07
49311;BME280;35177;45.900;5.946;2023-10-13T05:35:01;97958.56;;;7.30;95.37
49311;BME280;35177;45.900;5.946;2023-10-13T05:37:45;97964.44;;;7.36;93.85
49311;BME280;35177;45.900;5.946;2023-10-13T05:40:29;97963.22;;;7.43;94.86
49311;BME280;35177;45.900;5.946;2023-10-13T05:43:13;97956.31;;;7.22;94.86
49311;BME280;35177;45.900;5.946;2023-10-13T05:46:02;97965.13;;;7.40;95.15
49311;BME280;35177;45.900;5.946;2023-10-13T05:48:45;97966.56;;;7.28;93.51
49311;BME280;35177;45.900;5.946;2023-10-13T05:51:27;97968.09;;;7.32;92.70
49311;BME280;35177;45.900;5.946;2023-10-13T05:54:10;97971.09;;;7.43;92.55
49311;BME280;35177;45.900;5.946;2023-10-13T05:56:49;97977.28;;;7.42;91.38
49311;BME280;35177;45.900;5.946;2023-10-13T05:59:34;97979.06;;;7.42;93.84
49311;BME280;35177;45.900;5.946;2023-10-13T06:02:20;97980.91;;;7.21;92.15
49311;BME280;35177;45.900;5.946;2023-10-13T06:05:05;97990.53;;;7.22;93.55
49311;BME280;35177;45.900;5.946;2023-10-13T06:07:50;97983.63;;;7.20;92.99
49311;BME280;35177;45.900;5.946;2023-10-13T06:10:34;97987.41;;;7.14;94.70
49311;BME280;35177;45.900;5.946;2023-10-13T06:13:18;97986.31;;;7.37;93.77
49311;BME280;35177;45.900;5.946;2023-10-13T06:16:10;97983.75;;;7.54;95.01
49311;BME280;35177;45.900;5.946;2023-10-13T06:18:55;97982.31;;;7.65;94.31
49311;BME280;35177;45.900;5.946;2023-10-13T06:21:39;97981.44;;;7.65;94.50
49311;BME280;35177;45.900;5.946;2023-10-13T06:24:23;97987.84;;;7.78;96.10
49311;BME280;35177;45.900;5.946;2023-10-13T06:27:07;97989.97;;;8.06;96.35
49311;BME280;35177;45.900;5.946;2023-10-13T06:29:51;97988.50;;;8.34;97.03
49311;BME280;35177;45.900;5.946;2023-10-13T06:32:19;97991.16;;;8.34;96.15
49311;BME280;35177;45.900;5.946;2023-10-13T06:34:44;98000.75;;;8.53;95.84
49311;BME280;35177;45.900;5.946;2023-10-13T06:37:19;97995.88;;;8.62;95.59
49311;BME280;35177;45.900;5.946;2023-10-13T06:39:52;97994.94;;;8.80;95.63
49311;BME280;35177;45.900;5.946;2023-10-13T06:42:27;98008.75;;;9.01;95.51
49311;BME280;35177;45.900;5.946;2023-10-13T06:44:53;98011.69;;;9.12;95.06
49311;BME280;35177;45.900;5.946;2023-10-13T06:47:20;98005.28;;;9.16;94.50
49311;BME280;35177;45.900;5.946;2023-10-13T06:49:47;98011.97;;;9.39;93.58
49311;BME280;35177;45.900;5.946;2023-10-13T06:52:16;98001.41;;;9.54;93.65
49311;BME280;35177;45.900;5.946;2023-10-13T06:54:41;98001.94;;;9.61;94.86
49311;BME280;35177;45.900;5.946;2023-10-13T06:57:09;98007.78;;;9.50;95.35
49311;BME280;35177;45.900;5.946;2023-10-13T06:59:54;98005.25;;;9.49;97.58
49311;BME280;35177;45.900;5.946;2023-10-13T07:02:20;98005.31;;;9.78;95.46
49311;BME280;35177;45.900;5.946;2023-10-13T07:04:49;97998.41;;;9.76;95.28
49311;BME280;35177;45.900;5.946;2023-10-13T07:07:22;98007.28;;;9.75;95.32
49311;BME280;35177;45.900;5.946;2023-10-13T07:09:49;98009.94;;;9.75;94.71
49311;BME280;35177;45.900;5.946;2023-10-13T07:12:20;98011.31;;;9.82;94.36
49311;BME280;35177;45.900;5.946;2023-10-13T07:14:51;98011.97;;;9.86;94.39
49311;BME280;35177;45.900;5.946;2023-10-13T07:17:18;98006.50;;;9.89;95.13
49311;BME280;35177;45.900;5.946;2023-10-13T07:19:50;98014.53;;;9.87;95.37
49311;BME280;35177;45.900;5.946;2023-10-13T07:22:19;98009.22;;;10.03;94.70
49311;BME280;35177;45.900;5.946;2023-10-13T07:24:46;98011.25;;;10.13;92.85
49311;BME280;35177;45.900;5.946;2023-10-13T07:29:54;98013.44;;;10.36;92.54
49311;BME280;35177;45.900;5.946;2023-10-13T07:32:39;98017.69;;;10.39;93.03
49311;BME280;35177;45.900;5.946;2023-10-13T07:35:11;98019.91;;;10.46;92.63
49311;BME280;35177;45.900;5.946;2023-10-13T07:37:37;98024.81;;;10.53;91.69
49311;BME280;35177;45.900;5.946;2023-10-13T07:40:09;98017.13;;;10.64;94.27
49311;BME280;35177;45.900;5.946;2023-10-13T07:43:05;98019.69;;;10.79;93.63
49311;BME280;35177;45.900;5.946;2023-10-13T07:45:38;98016.59;;;10.87;92.44
49311;BME280;35177;45.900;5.946;2023-10-13T07:48:09;98011.78;;;11.07;92.60
49311;BME280;35177;45.900;5.946;2023-10-13T07:51:05;98012.25;;;11.14;92.93
49311;BME280;35177;45.900;5.946;2023-10-13T07:53:40;98016.59;;;11.15;89.64
49311;BME280;35177;45.900;5.946;2023-10-13T07:56:09;98016.84;;;11.25;91.12
49311;BME280;35177;45.900;5.946;2023-10-13T07:58:38;98025.47;;;11.28;91.53
49311;BME280;35177;45.900;5.946;2023-10-13T08:01:20;98020.00;;;11.31;90.87
49311;BME280;35177;45.900;5.946;2023-10-13T08:03:47;98015.75;;;11.43;91.88
49311;BME280;35177;45.900;5.946;2023-10-13T08:06:17;98009.19;;;11.48;90.81
49311;BME280;35177;45.900;5.946;2023-10-13T08:08:43;98012.78;;;11.47;90.83
49311;BME280;35177;45.900;5.946;2023-10-13T08:11:14;98020.47;;;11.38;87.33
49311;BME280;35177;45.900;5.946;2023-10-13T08:13:59;98018.00;;;11.49;94.13
49311;BME280;35177;45.900;5.946;2023-10-13T08:16:29;98011.34;;;11.56;94.92
49311;BME280;35177;45.900;5.946;2023-10-13T08:19:17;98008.13;;;11.51;94.46
49311;BME280;35177;45.900;5.946;2023-10-13T08:21:44;98007.69;;;11.44;92.36
49311;BME280;35177;45.900;5.946;2023-10-13T08:24:40;98008.25;;;11.49;91.29
49311;BME280;35177;45.900;5.946;2023-10-13T08:27:07;98008.41;;;11.60;92.77
49311;BME280;35177;45.900;5.946;2023-10-13T08:29:35;98015.13;;;11.66;91.78
49311;BME280;35177;45.900;5.946;2023-10-13T08:32:36;98007.25;;;11.64;91.43
49311;BME280;35177;45.900;5.946;2023-10-13T08:35:09;98003.53;;;11.68;89.79
49311;BME280;35177;45.900;5.946;2023-10-13T08:37:35;98000.16;;;11.79;89.94
49311;BME280;35177;45.900;5.946;2023-10-13T08:40:24;97998.72;;;11.88;89.09
49311;BME280;35177;45.900;5.946;2023-10-13T08:43:12;97987.97;;;12.03;89.27
49311;BME280;35177;45.900;5.946;2023-10-13T08:45:40;97992.56;;;12.14;89.06
49311;BME280;35177;45.900;5.946;2023-10-13T08:48:11;97996.50;;;12.21;88.37
49311;BME280;35177;45.900;5.946;2023-10-13T08:50:39;97988.91;;;12.29;88.65
49311;BME280;35177;45.900;5.946;2023-10-13T08:53:25;97992.94;;;12.34;88.52
49311;BME280;35177;45.900;5.946;2023-10-13T08:56:07;97989.56;;;12.45;88.30
49311;BME280;35177;45.900;5.946;2023-10-13T08:58:40;97983.09;;;12.62;88.28
49311;BME280;35177;45.900;5.946;2023-10-13T09:01:26;97981.97;;;12.66;85.45
49311;BME280;35177;45.900;5.946;2023-10-13T09:04:06;97980.03;;;12.80;87.19
49311;BME280;35177;45.900;5.946;2023-10-13T09:07:00;97972.81;;;12.95;87.61
49311;BME280;35177;45.900;5.946;2023-10-13T09:12:27;97970.44;;;13.41;85.51
49311;BME280;35177;45.900;5.946;2023-10-13T09:15:07;97967.13;;;13.50;82.71
49311;BME280;35177;45.900;5.946;2023-10-13T09:17:47;97967.91;;;13.52;81.46
49311;BME280;35177;45.900;5.946;2023-10-13T09:20:16;97960.84;;;13.87;77.24
49311;BME280;35177;45.900;5.946;2023-10-13T09:25:28;97969.19;;;14.65;71.96
49311;BME280;35177;45.900;5.946;2023-10-13T09:28:00;97958.47;;;14.42;70.22
49311;BME280;35177;45.900;5.946;2023-10-13T09:30:26;97960.69;;;14.59;72.18
49311;BME280;35177;45.900;5.946;2023-10-13T09:33:03;97956.13;;;14.73;69.21
49311;BME280;35177;45.900;5.946;2023-10-13T09:35:34;97947.69;;;15.12;70.89
49311;BME280;35177;45.900;5.946;2023-10-13T09:38:02;97942.38;;;15.45;66.38
49311;BME280;35177;45.900;5.946;2023-10-13T09:40:29;97944.66;;;15.72;67.41
49311;BME280;35177;45.900;5.946;2023-10-13T09:43:04;97938.41;;;15.93;66.70
49311;BME280;35177;45.900;5.946;2023-10-13T09:45:41;97929.06;;;16.20;66.19
49311;BME280;35177;45.900;5.946;2023-10-13T09:48:17;97933.94;;;16.46;65.08
49311;BME280;35177;45.900;5.946;2023-10-13T09:50:48;97931.38;;;16.45;65.29
49311;BME280;35177;45.900;5.946;2023-10-13T09:53:16;97929.25;;;16.80;62.91
49311;BME280;35177;45.900;5.946;2023-10-13T09:55:51;97928.34;;;16.91;64.02
49311;BME280;35177;45.900;5.946;2023-10-13T09:58:21;97923.47;;;17.35;60.19
49311;BME280;35177;45.900;5.946;2023-10-13T10:00:57;97920.28;;;17.42;59.63
49311;BME280;35177;45.900;5.946;2023-10-13T10:03:46;97916.88;;;17.40;59.19
49311;BME280;35177;45.900;5.946;2023-10-13T10:06:32;97915.59;;;17.74;60.19
49311;BME280;35177;45.900;5.946;2023-10-13T10:09:08;97917.03;;;17.87;59.46
49311;BME280;35177;45.900;5.946;2023-10-13T10:17:08;97907.75;;;18.20;59.23
49311;BME280;35177;45.900;5.946;2023-10-13T10:19:50;97905.63;;;18.33;59.32
49311;BME280;35177;45.900;5.946;2023-10-13T10:22:32;97905.44;;;18.83;57.57
49311;BME280;35177;45.900;5.946;2023-10-13T10:25:07;97892.53;;;19.05;57.39
49311;BME280;35177;45.900;5.946;2023-10-13T10:27:59;97893.56;;;18.95;56.08
49311;BME280;35177;45.900;5.946;2023-10-13T10:30:28;97877.19;;;18.98;56.45
49311;BME280;35177;45.900;5.946;2023-10-13T10:32:57;97888.97;;;18.68;59.10
49311;BME280;35177;45.900;5.946;2023-10-13T10:35:27;97888.97;;;18.68;59.61
49311;BME280;35177;45.900;5.946;2023-10-13T10:38:06;97886.22;;;18.97;57.12
49311;BME280;35177;45.900;5.946;2023-10-13T10:40:48;97878.34;;;19.22;57.39
49311;BME280;35177;45.900;5.946;2023-10-13T10:43:17;97876.84;;;19.47;57.28
49311;BME280;35177;45.900;5.946;2023-10-13T10:45:46;97873.38;;;19.64;57.10
49311;BME280;35177;45.900;5.946;2023-10-13T10:48:12;97878.19;;;19.61;55.49
49311;BME280;35177;45.900;5.946;2023-10-13T10:50:54;97871.03;;;19.52;54.81
49311;BME280;35177;45.900;5.946;2023-10-13T10:53:22;97865.59;;;19.61;54.76
49311;BME280;35177;45.900;5.946;2023-10-13T10:55:48;97865.38;;;19.55;55.13
49311;BME280;35177;45.900;5.946;2023-10-13T10:58:14;97866.25;;;19.46;55.24
49311;BME280;35177;45.900;5.946;2023-10-13T11:01:05;97850.91;;;20.00;55.15
49311;BME280;35177;45.900;5.946;2023-10-13T11:03:37;97847.38;;;20.00;53.98
49311;BME280;35177;45.900;5.946;2023-10-13T11:06:04;97852.66;;;20.09;55.57
49311;BME280;35177;45.900;5.946;2023-10-13T11:08:30;97851.06;;;19.99;55.96
49311;BME280;35177;45.900;5.946;2023-10-13T11:10:58;97844.78;;;19.90;55.83
49311;BME280;35177;45.900;5.946;2023-10-13T11:13:44;97848.50;;;19.80;56.44
49311;BME280;35177;45.900;5.946;2023-10-13T11:16:23;97840.47;;;20.58;53.21
49311;BME280;35177;45.900;5.946;2023-10-13T11:19:03;97834.59;;;20.55;53.40
49311;BME280;35177;45.900;5.946;2023-10-13T11:21:30;97840.34;;;20.60;53.82
49311;BME280;35177;45.900;5.946;2023-10-13T11:23:57;97832.97;;;20.62;52.62
49311;BME280;35177;45.900;5.946;2023-10-13T11:26:33;97832.16;;;20.44;52.36
49311;BME280;35177;45.900;5.946;2023-10-13T11:28:59;97826.25;;;20.66;52.61
49311;BME280;35177;45.900;5.946;2023-10-13T11:31:24;97815.16;;;21.20;50.96
49311;BME280;35177;45.900;5.946;2023-10-13T11:33:49;97818.47;;;21.14;53.06
49311;BME280;35177;45.900;5.946;2023-10-13T11:36:17;97815.66;;;21.24;52.82
49311;BME280;35177;45.900;5.946;2023-10-13T11:38:46;97807.25;;;20.93;53.43
49311;BME280;35177;45.900;5.946;2023-10-13T11:41:12;97803.06;;;20.65;55.04
49311;BME280;35177;45.900;5.946;2023-10-13T11:43:55;97794.00;;;20.66;54.82
49311;BME280;35177;45.900;5.946;2023-10-13T11:46:37;97796.75;;;20.74;54.82
49311;BME280;35177;45.900;5.946;2023-10-13T11:51:45;97796.16;;;20.96;52.43
49311;BME280;35177;45.900;5.946;2023-10-13T11:54:17;97789.53;;;20.83;55.34
49311;BME280;35177;45.900;5.946;2023-10-13T11:56:44;97787.25;;;21.29;53.23
49311;BME280;35177;45.900;5.946;2023-10-13T11:59:10;97775.19;;;21.50;52.87
49311;BME280;35177;45.900;5.946;2023-10-13T12:01:50;97775.91;;;21.68;51.24
49311;BME280;35177;45.900;5.946;2023-10-13T12:04:35;97766.19;;;21.91;53.41
49311;BME280;35177;45.900;5.946;2023-10-13T12:07:22;97773.19;;;21.68;52.77
49311;BME280;35177;45.900;5.946;2023-10-13T12:10:06;97772.50;;;21.41;54.20
49311;BME280;35177;45.900;5.946;2023-10-13T12:12:40;97763.13;;;21.70;51.54
49311;BME280;35177;45.900;5.946;2023-10-13T12:15:08;97758.38;;;21.64;51.66
49311;BME280;35177;45.900;5.946;2023-10-13T12:17:35;97756.38;;;21.82;51.96
49311;BME280;35177;45.900;5.946;2023-10-13T12:20:02;97754.06;;;22.03;54.54
49311;BME280;35177;45.900;5.946;2023-10-13T12:22:31;97748.34;;;22.22;52.01
49311;BME280;35177;45.900;5.946;2023-10-13T12:25:16;97742.28;;;22.12;54.16
49311;BME280;35177;45.900;5.946;2023-10-13T12:27:59;97749.31;;;22.37;51.54
49311;BME280;35177;45.900;5.946;2023-10-13T12:30:45;97730.44;;;22.37;54.26
49311;BME280;35177;45.900;5.946;2023-10-13T12:33:14;97733.50;;;22.34;55.57
49311;BME280;35177;45.900;5.946;2023-10-13T12:35:42;97737.19;;;22.41;51.02
49311;BME280;35177;45.900;5.946;2023-10-13T12:38:30;97724.88;;;22.39;52.46
49311;BME280;35177;45.900;5.946;2023-10-13T12:41:07;97730.16;;;22.95;52.12
49311;BME280;35177;45.900;5.946;2023-10-13T12:43:51;97720.44;;;22.70;51.82
49311;BME280;35177;45.900;5.946;2023-10-13T12:46:37;97720.50;;;23.01;52.39
49311;BME280;35177;45.900;5.946;2023-10-13T12:49:21;97708.47;;;22.56;53.11
49311;BME280;35177;45.900;5.946;2023-10-13T12:52:05;97704.47;;;22.44;54.93
49311;BME280;35177;45.900;5.946;2023-10-13T12:54:43;97701.75;;;22.44;54.11
49311;BME280;35177;45.900;5.946;2023-10-13T12:57:32;97693.47;;;22.70;55.24
49311;BME280;35177;45.900;5.946;2023-10-13T12:59:58;97697.97;;;22.86;54.97
49311;BME280;35177;45.900;5.946;2023-10-13T13:02:25;97692.53;;;23.55;54.37
49311;BME280;35177;45.900;5.946;2023-10-13T13:04:52;97691.38;;;23.72;52.42
49311;BME280;35177;45.900;5.946;2023-10-13T13:07:47;97679.47;;;23.81;51.32
49311;BME280;35177;45.900;5.946;2023-10-13T13:10:17;97670.44;;;23.74;50.20
49311;BME280;35177;45.900;5.946;2023-10-13T13:12:43;97675.16;;;23.72;52.65
49311;BME280;35177;45.900;5.946;2023-10-13T13:15:08;97666.50;;;23.77;51.58
49311;BME280;35177;45.900;5.946;2023-10-13T13:17:38;97668.75;;;23.73;53.72
49311;BME280;35177;45.900;5.946;2023-10-13T13:20:08;97669.19;;;23.62;53.79
49311;BME280;35177;45.900;5.946;2023-10-13T13:22:39;97670.13;;;23.69;55.73
49311;BME280;35177;45.900;5.946;2023-10-13T13:25:05;97664.59;;;23.85;53.47
49311;BME280;35177;45.900;5.946;2023-10-13T13:27:34;97662.50;;;23.73;53.73
49311;BME280;35177;45.900;5.946;2023-10-13T13:30:00;97657.22;;;23.57;54.68
49311;BME280;35177;45.900;5.946;2023-10-13T13:32:26;97648.91;;;23.81;55.00
49311;BME280;35177;45.900;5.946;2023-10-13T13:34:54;97652.41;;;23.67;53.54
49311;BME280;35177;45.900;5.946;2023-10-13T13:37:36;97647.19;;;23.65;54.76
49311;BME280;35177;45.900;5.946;2023-10-13T13:40:06;97635.78;;;23.55;54.72
49311;BME280;35177;45.900;5.946;2023-10-13T13:42:47;97632.19;;;23.63;53.77
49311;BME280;35177;45.900;5.946;2023-10-13T13:45:16;97624.16;;;23.55;54.33
49311;BME280;35177;45.900;5.946;2023-10-13T13:47:52;97631.72;;;23.59;54.13
49311;BME280;35177;45.900;5.946;2023-10-13T13:52:50;97625.56;;;23.65;54.25
49311;BME280;35177;45.900;5.946;2023-10-13T13:55:18;97627.25;;;23.66;54.30
49311;BME280;35177;45.900;5.946;2023-10-13T13:57:43;97626.25;;;23.67;54.74
49311;BME280;35177;45.900;5.946;2023-10-13T14:00:13;97622.50;;;23.68;54.31
49311;BME280;35177;45.900;5.946;2023-10-13T14:02:43;97620.41;;;23.78;54.96
49311;BME280;35177;45.900;5.946;2023-10-13T14:05:14;97623.66;;;23.51;54.52
49311;BME280;35177;45.900;5.946;2023-10-13T14:07:44;97620.56;;;23.77;54.57
49311;BME280;35177;45.900;5.946;2023-10-13T14:10:16;97626.34;;;23.74;54.41